sensor_id;sensor_type;location;lat;lon;timestamp;P1;durP1;ratioP1;P2;durP2;ratioP2
47960;SDS011;33721;48.852;9.936;2023-01-10T00:00:26;8.40;;;3.65;;
47960;SDS011;33721;48.852;9.936;2023-01-10T00:02:58;8.80;;;3.35;;
47960;SDS011;33721;48.852;9.936;2023-01-10T00:05:24;7.35;;;3.00;;
47960;SDS011;33721;48.852;9.936;2023-01-10T00:07:49;7.63;;;2.83;;
47960;SDS011;33721;48.852;9.936;2023-01-10T00:10:15;8.77;;;2.97;;
47960;SDS011;33721;48.852;9.936;2023-01-10T00:12:41;5.00;;;2.55;;
47960;SDS011;33721;48.852;9.936;2023-01-10T00:15:25;4.35;;;2.35;;
47960;SDS011;33721;48.852;9.936;2023-01-10T00:17:51;4.53;;;2.10;;
47960;SDS011;33721;48.852;9.936;2023-01-10T00:20:17;5.00;;;2.60;;
47960;SDS011;33721;48.852;9.936;2023-01-10T00:22:42;5.80;;;2.22;;
47960;SDS011;33721;48.852;9.936;2023-01-10T00:25:09;5.15;;;2.20;;
47960;SDS011;33721;48.852;9.936;2023-01-10T00:27:35;5.85;;;2.30;;
47960;SDS011;33721;48.852;9.936;2023-01-10T00:30:01;6.45;;;2.17;;
47960;SDS011;33721;48.852;9.936;2023-01-10T00:32:37;8.80;;;1.92;;
47960;SDS011;33721;48.852;9.936;2023-01-10T00:35:07;5.32;;;2.17;;
47960;SDS011;33721;48.852;9.936;2023-01-10T00:37:33;4.80;;;2.00;;
47960;SDS011;33721;48.852;9.936;2023-01-10T00:39:59;4.05;;;2.15;;
47960;SDS011;33721;48.852;9.936;2023-01-10T00:42:24;7.07;;;2.25;;
47960;SDS011;33721;48.852;9.936;2023-01-10T00:45:08;6.47;;;2.58;;
47960;SDS011;33721;48.852;9.936;2023-01-10T00:47:35;5.38;;;2.17;;
47960;SDS011;33721;48.852;9.936;2023-01-10T00:50:01;6.13;;;1.90;;
47960;SDS011;33721;48.852;9.936;2023-01-10T00:52:29;5.43;;;2.60;;
47960;SDS011;33721;48.852;9.936;2023-01-10T00:54:55;5.22;;;2.88;;
47960;SDS011;33721;48.852;9.936;2023-01-10T00:57:21;5.40;;;2.40;;
47960;SDS011;33721;48.852;9.936;2023-01-10T00:59:46;6.00;;;2.50;;
47960;SDS011;33721;48.852;9.936;2023-01-10T01:02:12;6.38;;;2.50;;
47960;SDS011;33721;48.852;9.936;2023-01-10T01:04:38;3.65;;;2.10;;
47960;SDS011;33721;48.852;9.936;2023-01-10T01:07:03;5.78;;;2.55;;
47960;SDS011;33721;48.852;9.936;2023-01-10T01:09:29;6.15;;;2.55;;
47960;SDS011;33721;48.852;9.936;2023-01-10T01:11:54;4.90;;;2.40;;
47960;SDS011;33721;48.852;9.936;2023-01-10T01:14:21;5.13;;;2.25;;
47960;SDS011;33721;48.852;9.936;2023-01-10T01:16:47;4.63;;;2.35;;
47960;SDS011;33721;48.852;9.936;2023-01-10T01:19:13;5.85;;;1.90;;
47960;SDS011;33721;48.852;9.936;2023-01-10T01:21:39;5.45;;;2.10;;
47960;SDS011;33721;48.852;9.936;2023-01-10T01:24:05;5.00;;;2.40;;
47960;SDS011;33721;48.852;9.936;2023-01-10T01:26:31;6.32;;;2.55;;
47960;SDS011;33721;48.852;9.936;2023-01-10T01:28:57;6.70;;;2.45;;
47960;SDS011;33721;48.852;9.936;2023-01-10T01:31:23;5.25;;;2.38;;
47960;SDS011;33721;48.852;9.936;2023-01-10T01:33:49;5.60;;;2.78;;
47960;SDS011;33721;48.852;9.936;2023-01-10T01:36:15;4.53;;;2.28;;
47960;SDS011;33721;48.852;9.936;2023-01-10T01:38:41;6.68;;;2.60;;
47960;SDS011;33721;48.852;9.936;2023-01-10T01:41:06;6.40;;;2.50;;
47960;SDS011;33721;48.852;9.936;2023-01-10T01:44:00;6.55;;;3.13;;
47960;SDS011;33721;48.852;9.936;2023-01-10T01:46:28;7.78;;;2.92;;
47960;SDS011;33721;48.852;9.936;2023-01-10T01:48:55;7.93;;;3.38;;
47960;SDS011;33721;48.852;9.936;2023-01-10T01:51:22;5.43;;;3.00;;
47960;SDS011;33721;48.852;9.936;2023-01-10T01:54:12;8.63;;;3.67;;
47960;SDS011;33721;48.852;9.936;2023-01-10T01:56:41;6.20;;;3.47;;
47960;SDS011;33721;48.852;9.936;2023-01-10T01:59:19;7.75;;;3.42;;
47960;SDS011;33721;48.852;9.936;2023-01-10T02:01:51;7.20;;;3.47;;
47960;SDS011;33721;48.852;9.936;2023-01-10T02:04:24;9.15;;;3.83;;
47960;SDS011;33721;48.852;9.936;2023-01-10T02:06:54;7.63;;;3.47;;
47960;SDS011;33721;48.852;9.936;2023-01-10T02:12:06;6.57;;;3.25;;
47960;SDS011;33721;48.852;9.936;2023-01-10T02:14:33;7.75;;;3.42;;
47960;SDS011;33721;48.852;9.936;2023-01-10T02:17:00;7.90;;;3.15;;
47960;SDS011;33721;48.852;9.936;2023-01-10T02:19:36;6.93;;;3.33;;
47960;SDS011;33721;48.852;9.936;2023-01-10T02:39:14;7.60;;;3.72;;
47960;SDS011;33721;48.852;9.936;2023-01-10T02:41:44;8.07;;;3.92;;
47960;SDS011;33721;48.852;9.936;2023-01-10T02:44:34;9.02;;;4.50;;
47960;SDS011;33721;48.852;9.936;2023-01-10T02:47:19;7.82;;;4.18;;
47960;SDS011;33721;48.852;9.936;2023-01-10T02:49:45;8.90;;;4.43;;
47960;SDS011;33721;48.852;9.936;2023-01-10T02:52:13;12.30;;;4.25;;
47960;SDS011;33721;48.852;9.936;2023-01-10T02:54:52;8.65;;;4.20;;
47960;SDS011;33721;48.852;9.936;2023-01-10T03:03:01;10.10;;;4.07;;
47960;SDS011;33721;48.852;9.936;2023-01-10T03:08:34;10.55;;;4.50;;
47960;SDS011;33721;48.852;9.936;2023-01-10T03:11:13;10.10;;;4.75;;
47960;SDS011;33721;48.852;9.936;2023-01-10T03:16:17;11.77;;;4.53;;
47960;SDS011;33721;48.852;9.936;2023-01-10T03:18:47;8.70;;;4.28;;
47960;SDS011;33721;48.852;9.936;2023-01-10T03:21:18;8.80;;;4.45;;
47960;SDS011;33721;48.852;9.936;2023-01-10T03:23:46;8.43;;;4.18;;
47960;SDS011;33721;48.852;9.936;2023-01-10T03:26:14;6.28;;;3.53;;
47960;SDS011;33721;48.852;9.936;2023-01-10T03:28:46;7.93;;;4.00;;
47960;SDS011;33721;48.852;9.936;2023-01-10T03:31:17;6.13;;;3.40;;
47960;SDS011;33721;48.852;9.936;2023-01-10T03:33:47;7.18;;;3.22;;
47960;SDS011;33721;48.852;9.936;2023-01-10T03:39:06;5.47;;;2.97;;
47960;SDS011;33721;48.852;9.936;2023-01-10T03:41:49;4.00;;;2.50;;
47960;SDS011;33721;48.852;9.936;2023-01-10T03:44:22;4.20;;;2.20;;
47960;SDS011;33721;48.852;9.936;2023-01-10T03:49:59;3.00;;;1.75;;
47960;SDS011;33721;48.852;9.936;2023-01-10T03:52:31;4.45;;;2.30;;
47960;SDS011;33721;48.852;9.936;2023-01-10T03:54:59;3.63;;;2.25;;
47960;SDS011;33721;48.852;9.936;2023-01-10T03:57:26;3.30;;;1.73;;
47960;SDS011;33721;48.852;9.936;2023-01-10T03:59:53;4.57;;;1.70;;
47960;SDS011;33721;48.852;9.936;2023-01-10T04:02:26;4.38;;;1.80;;
47960;SDS011;33721;48.852;9.936;2023-01-10T04:04:53;3.28;;;1.70;;
47960;SDS011;33721;48.852;9.936;2023-01-10T04:07:19;2.45;;;1.50;;
47960;SDS011;33721;48.852;9.936;2023-01-10T04:09:45;2.30;;;1.27;;
47960;SDS011;33721;48.852;9.936;2023-01-10T04:12:10;1.90;;;1.10;;
47960;SDS011;33721;48.852;9.936;2023-01-10T04:14:36;2.38;;;1.08;;
47960;SDS011;33721;48.852;9.936;2023-01-10T04:17:02;3.15;;;1.10;;
47960;SDS011;33721;48.852;9.936;2023-01-10T04:19:28;2.25;;;1.08;;
47960;SDS011;33721;48.852;9.936;2023-01-10T04:21:53;2.20;;;1.00;;
47960;SDS011;33721;48.852;9.936;2023-01-10T04:24:19;2.67;;;0.98;;
47960;SDS011;33721;48.852;9.936;2023-01-10T04:26:44;1.63;;;1.00;;
47960;SDS011;33721;48.852;9.936;2023-01-10T04:29:10;1.98;;;1.20;;
47960;SDS011;33721;48.852;9.936;2023-01-10T04:31:36;2.90;;;1.20;;
47960;SDS011;33721;48.852;9.936;2023-01-10T04:34:03;2.67;;;1.30;;
47960;SDS011;33721;48.852;9.936;2023-01-10T04:36:30;4.05;;;1.23;;
47960;SDS011;33721;48.852;9.936;2023-01-10T04:38:55;2.60;;;1.20;;
47960;SDS011;33721;48.852;9.936;2023-01-10T04:41:21;2.05;;;1.30;;
47960;SDS011;33721;48.852;9.936;2023-01-10T04:43:46;3.03;;;1.58;;
47960;SDS011;33721;48.852;9.936;2023-01-10T04:46:13;3.63;;;1.90;;
47960;SDS011;33721;48.852;9.936;2023-01-10T04:48:39;4.72;;;1.90;;
47960;SDS011;33721;48.852;9.936;2023-01-10T04:51:05;4.65;;;2.28;;
47960;SDS011;33721;48.852;9.936;2023-01-10T04:53:31;6.63;;;2.60;;
47960;SDS011;33721;48.852;9.936;2023-01-10T04:56:07;4.35;;;2.53;;
47960;SDS011;33721;48.852;9.936;2023-01-10T04:58:34;5.70;;;2.17;;
47960;SDS011;33721;48.852;9.936;2023-01-10T05:01:13;8.68;;;2.40;;
47960;SDS011;33721;48.852;9.936;2023-01-10T05:03:46;7.10;;;2.00;;
47960;SDS011;33721;48.852;9.936;2023-01-10T05:06:13;5.78;;;2.63;;
47960;SDS011;33721;48.852;9.936;2023-01-10T05:08:39;7.88;;;2.60;;
47960;SDS011;33721;48.852;9.936;2023-01-10T05:11:04;4.63;;;2.38;;
47960;SDS011;33721;48.852;9.936;2023-01-10T05:13:30;7.47;;;2.10;;
47960;SDS011;33721;48.852;9.936;2023-01-10T05:15:56;11.63;;;2.53;;
47960;SDS011;33721;48.852;9.936;2023-01-10T05:18:25;5.57;;;2.40;;
47960;SDS011;33721;48.852;9.936;2023-01-10T05:20:52;7.47;;;2.67;;
47960;SDS011;33721;48.852;9.936;2023-01-10T05:23:23;6.75;;;1.98;;
47960;SDS011;33721;48.852;9.936;2023-01-10T05:25:49;6.18;;;2.65;;
47960;SDS011;33721;48.852;9.936;2023-01-10T05:28:14;9.95;;;2.50;;
47960;SDS011;33721;48.852;9.936;2023-01-10T05:30:40;5.72;;;2.40;;
47960;SDS011;33721;48.852;9.936;2023-01-10T05:33:06;9.27;;;2.40;;
47960;SDS011;33721;48.852;9.936;2023-01-10T05:35:31;9.60;;;2.45;;
47960;SDS011;33721;48.852;9.936;2023-01-10T05:37:57;11.15;;;2.55;;
47960;SDS011;33721;48.852;9.936;2023-01-10T05:40:23;7.55;;;2.88;;
47960;SDS011;33721;48.852;9.936;2023-01-10T05:42:49;6.88;;;2.65;;
47960;SDS011;33721;48.852;9.936;2023-01-10T05:45:14;10.63;;;2.92;;
47960;SDS011;33721;48.852;9.936;2023-01-10T05:47:40;12.70;;;3.58;;
47960;SDS011;33721;48.852;9.936;2023-01-10T05:50:06;15.00;;;3.60;;
47960;SDS011;33721;48.852;9.936;2023-01-10T05:52:32;7.90;;;3.95;;
47960;SDS011;33721;48.852;9.936;2023-01-10T05:54:57;8.27;;;3.58;;
47960;SDS011;33721;48.852;9.936;2023-01-10T05:57:23;7.63;;;3.92;;
47960;SDS011;33721;48.852;9.936;2023-01-10T05:59:49;14.77;;;4.07;;
47960;SDS011;33721;48.852;9.936;2023-01-10T06:02:15;11.63;;;3.95;;
47960;SDS011;33721;48.852;9.936;2023-01-10T06:04:41;14.43;;;4.20;;
47960;SDS011;33721;48.852;9.936;2023-01-10T06:07:06;12.27;;;4.55;;
47960;SDS011;33721;48.852;9.936;2023-01-10T06:09:32;14.27;;;4.75;;
47960;SDS011;33721;48.852;9.936;2023-01-10T06:11:57;13.88;;;5.07;;
47960;SDS011;33721;48.852;9.936;2023-01-10T06:14:23;12.50;;;5.15;;
47960;SDS011;33721;48.852;9.936;2023-01-10T06:16:49;9.55;;;4.32;;
47960;SDS011;33721;48.852;9.936;2023-01-10T06:19:15;12.45;;;5.03;;
47960;SDS011;33721;48.852;9.936;2023-01-10T06:21:40;18.20;;;5.18;;
47960;SDS011;33721;48.852;9.936;2023-01-10T06:24:07;13.18;;;5.20;;
47960;SDS011;33721;48.852;9.936;2023-01-10T06:26:32;17.70;;;5.22;;
47960;SDS011;33721;48.852;9.936;2023-01-10T06:28:58;16.02;;;5.50;;
47960;SDS011;33721;48.852;9.936;2023-01-10T06:31:24;17.88;;;5.50;;
47960;SDS011;33721;48.852;9.936;2023-01-10T06:33:50;17.35;;;5.40;;
47960;SDS011;33721;48.852;9.936;2023-01-10T06:36:16;15.90;;;5.47;;
47960;SDS011;33721;48.852;9.936;2023-01-10T06:38:42;13.57;;;4.68;;
47960;SDS011;33721;48.852;9.936;2023-01-10T06:41:07;14.60;;;5.18;;
47960;SDS011;33721;48.852;9.936;2023-01-10T06:43:40;18.17;;;5.75;;
47960;SDS011;33721;48.852;9.936;2023-01-10T06:46:06;14.88;;;5.55;;
47960;SDS011;33721;48.852;9.936;2023-01-10T06:48:34;16.02;;;5.32;;
47960;SDS011;33721;48.852;9.936;2023-01-10T06:51:00;12.23;;;4.38;;
47960;SDS011;33721;48.852;9.936;2023-01-10T06:53:26;17.75;;;5.38;;
47960;SDS011;33721;48.852;9.936;2023-01-10T06:55:53;19.35;;;5.15;;
47960;SDS011;33721;48.852;9.936;2023-01-10T06:58:19;13.00;;;4.47;;
47960;SDS011;33721;48.852;9.936;2023-01-10T07:00:45;12.32;;;4.60;;
47960;SDS011;33721;48.852;9.936;2023-01-10T07:03:11;17.35;;;4.85;;
47960;SDS011;33721;48.852;9.936;2023-01-10T07:05:36;18.73;;;4.60;;
47960;SDS011;33721;48.852;9.936;2023-01-10T07:08:02;24.75;;;5.28;;
47960;SDS011;33721;48.852;9.936;2023-01-10T07:10:27;16.27;;;4.53;;
47960;SDS011;33721;48.852;9.936;2023-01-10T07:12:54;22.58;;;5.32;;
47960;SDS011;33721;48.852;9.936;2023-01-10T07:15:20;14.43;;;4.65;;
47960;SDS011;33721;48.852;9.936;2023-01-10T07:17:46;18.40;;;5.20;;
47960;SDS011;33721;48.852;9.936;2023-01-10T07:20:12;15.07;;;4.38;;
47960;SDS011;33721;48.852;9.936;2023-01-10T07:22:37;15.07;;;4.50;;
47960;SDS011;33721;48.852;9.936;2023-01-10T07:25:03;15.77;;;4.68;;
47960;SDS011;33721;48.852;9.936;2023-01-10T07:27:30;17.15;;;4.43;;
47960;SDS011;33721;48.852;9.936;2023-01-10T07:29:57;18.48;;;4.55;;
47960;SDS011;33721;48.852;9.936;2023-01-10T07:32:23;21.65;;;4.70;;
47960;SDS011;33721;48.852;9.936;2023-01-10T07:34:49;21.55;;;4.43;;
47960;SDS011;33721;48.852;9.936;2023-01-10T07:37:14;20.45;;;4.47;;
47960;SDS011;33721;48.852;9.936;2023-01-10T07:39:40;16.80;;;5.30;;
47960;SDS011;33721;48.852;9.936;2023-01-10T07:42:07;24.35;;;4.35;;
47960;SDS011;33721;48.852;9.936;2023-01-10T07:44:33;17.27;;;4.05;;
47960;SDS011;33721;48.852;9.936;2023-01-10T07:46:59;15.35;;;4.15;;
47960;SDS011;33721;48.852;9.936;2023-01-10T07:49:25;20.27;;;3.83;;
47960;SDS011;33721;48.852;9.936;2023-01-10T07:51:50;18.95;;;3.65;;
47960;SDS011;33721;48.852;9.936;2023-01-10T07:54:16;17.20;;;3.83;;
47960;SDS011;33721;48.852;9.936;2023-01-10T07:56:42;15.65;;;3.75;;
47960;SDS011;33721;48.852;9.936;2023-01-10T07:59:07;27.27;;;4.10;;
47960;SDS011;33721;48.852;9.936;2023-01-10T08:01:33;18.75;;;4.13;;
47960;SDS011;33721;48.852;9.936;2023-01-10T08:03:59;12.75;;;4.43;;
47960;SDS011;33721;48.852;9.936;2023-01-10T08:06:25;20.92;;;3.92;;
47960;SDS011;33721;48.852;9.936;2023-01-10T08:08:50;17.27;;;3.95;;
47960;SDS011;33721;48.852;9.936;2023-01-10T08:11:16;17.50;;;3.53;;
47960;SDS011;33721;48.852;9.936;2023-01-10T08:13:42;15.27;;;3.80;;
47960;SDS011;33721;48.852;9.936;2023-01-10T08:16:07;22.83;;;3.20;;
47960;SDS011;33721;48.852;9.936;2023-01-10T08:18:33;14.57;;;3.17;;
47960;SDS011;33721;48.852;9.936;2023-01-10T08:20:59;10.38;;;2.97;;
47960;SDS011;33721;48.852;9.936;2023-01-10T08:23:25;14.65;;;3.35;;
47960;SDS011;33721;48.852;9.936;2023-01-10T08:25:51;14.32;;;3.05;;
47960;SDS011;33721;48.852;9.936;2023-01-10T08:28:18;11.60;;;2.65;;
47960;SDS011;33721;48.852;9.936;2023-01-10T08:30:43;15.82;;;2.90;;
47960;SDS011;33721;48.852;9.936;2023-01-10T08:33:09;16.10;;;3.08;;
47960;SDS011;33721;48.852;9.936;2023-01-10T08:35:36;12.98;;;3.03;;
47960;SDS011;33721;48.852;9.936;2023-01-10T08:38:03;11.93;;;2.58;;
47960;SDS011;33721;48.852;9.936;2023-01-10T08:40:29;17.90;;;3.30;;
47960;SDS011;33721;48.852;9.936;2023-01-10T08:42:59;22.05;;;3.42;;
47960;SDS011;33721;48.852;9.936;2023-01-10T08:45:26;16.33;;;3.22;;
47960;SDS011;33721;48.852;9.936;2023-01-10T08:47:53;19.80;;;3.25;;
47960;SDS011;33721;48.852;9.936;2023-01-10T08:50:19;16.05;;;3.38;;
47960;SDS011;33721;48.852;9.936;2023-01-10T08:52:45;15.88;;;3.25;;
47960;SDS011;33721;48.852;9.936;2023-01-10T08:55:10;13.40;;;3.33;;
47960;SDS011;33721;48.852;9.936;2023-01-10T08:57:36;25.67;;;3.70;;
47960;SDS011;33721;48.852;9.936;2023-01-10T09:00:02;20.67;;;3.47;;
47960;SDS011;33721;48.852;9.936;2023-01-10T09:02:29;11.95;;;3.10;;
47960;SDS011;33721;48.852;9.936;2023-01-10T09:04:54;21.58;;;3.97;;
47960;SDS011;33721;48.852;9.936;2023-01-10T09:07:20;15.35;;;3.42;;
47960;SDS011;33721;48.852;9.936;2023-01-10T09:09:46;19.70;;;3.42;;
47960;SDS011;33721;48.852;9.936;2023-01-10T09:12:12;19.75;;;3.22;;
47960;SDS011;33721;48.852;9.936;2023-01-10T09:14:56;10.90;;;3.13;;
47960;SDS011;33721;48.852;9.936;2023-01-10T09:17:21;19.85;;;3.47;;
47960;SDS011;33721;48.852;9.936;2023-01-10T09:19:47;14.75;;;3.17;;
47960;SDS011;33721;48.852;9.936;2023-01-10T09:22:12;14.63;;;3.55;;
47960;SDS011;33721;48.852;9.936;2023-01-10T09:24:38;11.40;;;3.50;;
47960;SDS011;33721;48.852;9.936;2023-01-10T09:27:05;14.70;;;4.50;;
47960;SDS011;33721;48.852;9.936;2023-01-10T09:29:31;12.15;;;3.05;;
47960;SDS011;33721;48.852;9.936;2023-01-10T09:31:57;14.27;;;3.53;;
47960;SDS011;33721;48.852;9.936;2023-01-10T09:34:22;14.80;;;3.00;;
47960;SDS011;33721;48.852;9.936;2023-01-10T09:36:49;14.95;;;2.42;;
47960;SDS011;33721;48.852;9.936;2023-01-10T09:39:14;12.52;;;3.10;;
47960;SDS011;33721;48.852;9.936;2023-01-10T09:44:20;10.85;;;2.72;;
47960;SDS011;33721;48.852;9.936;2023-01-10T09:47:05;13.60;;;2.47;;
47960;SDS011;33721;48.852;9.936;2023-01-10T09:52:50;16.67;;;2.75;;
47960;SDS011;33721;48.852;9.936;2023-01-10T09:55:27;9.40;;;2.35;;
47960;SDS011;33721;48.852;9.936;2023-01-10T09:57:57;8.68;;;2.60;;
47960;SDS011;33721;48.852;9.936;2023-01-10T10:00:51;8.98;;;2.30;;
47960;SDS011;33721;48.852;9.936;2023-01-10T10:03:22;13.95;;;3.38;;
47960;SDS011;33721;48.852;9.936;2023-01-10T10:06:10;13.48;;;2.42;;
47960;SDS011;33721;48.852;9.936;2023-01-10T10:08:38;13.88;;;2.55;;
47960;SDS011;33721;48.852;9.936;2023-01-10T10:11:51;14.75;;;3.33;;
47960;SDS011;33721;48.852;9.936;2023-01-10T10:14:10;16.42;;;2.83;;
47960;SDS011;33721;48.852;9.936;2023-01-10T10:35:42;15.52;;;3.17;;
47960;SDS011;33721;48.852;9.936;2023-01-10T10:38:19;13.45;;;3.08;;
47960;SDS011;33721;48.852;9.936;2023-01-10T10:40:57;9.10;;;3.00;;
47960;SDS011;33721;48.852;9.936;2023-01-10T10:43:28;15.80;;;3.15;;
47960;SDS011;33721;48.852;9.936;2023-01-10T10:46:07;14.40;;;3.03;;
47960;SDS011;33721;48.852;9.936;2023-01-10T10:54:13;19.90;;;3.92;;
47960;SDS011;33721;48.852;9.936;2023-01-10T10:56:40;13.85;;;3.28;;
47960;SDS011;33721;48.852;9.936;2023-01-10T10:59:07;11.15;;;2.90;;
47960;SDS011;33721;48.852;9.936;2023-01-10T11:01:36;8.48;;;2.50;;
47960;SDS011;33721;48.852;9.936;2023-01-10T11:04:05;10.02;;;2.65;;
47960;SDS011;33721;48.852;9.936;2023-01-10T11:06:34;15.50;;;2.83;;
47960;SDS011;33721;48.852;9.936;2023-01-10T11:09:03;13.02;;;3.13;;
47960;SDS011;33721;48.852;9.936;2023-01-10T11:11:31;12.32;;;2.70;;
47960;SDS011;33721;48.852;9.936;2023-01-10T11:14:08;11.10;;;2.85;;
47960;SDS011;33721;48.852;9.936;2023-01-10T11:16:38;11.30;;;3.03;;
47960;SDS011;33721;48.852;9.936;2023-01-10T11:19:09;6.57;;;2.55;;
47960;SDS011;33721;48.852;9.936;2023-01-10T11:21:37;9.68;;;2.88;;
47960;SDS011;33721;48.852;9.936;2023-01-10T11:24:04;9.57;;;2.45;;
47960;SDS011;33721;48.852;9.936;2023-01-10T11:26:49;7.63;;;2.38;;
47960;SDS011;33721;48.852;9.936;2023-01-10T11:29:17;12.30;;;2.30;;
47960;SDS011;33721;48.852;9.936;2023-01-10T11:31:49;11.57;;;3.08;;
47960;SDS011;33721;48.852;9.936;2023-01-10T11:34:23;9.27;;;2.38;;
47960;SDS011;33721;48.852;9.936;2023-01-10T11:39:25;11.02;;;2.33;;
47960;SDS011;33721;48.852;9.936;2023-01-10T11:41:51;9.63;;;3.00;;
47960;SDS011;33721;48.852;9.936;2023-01-10T11:46:56;10.15;;;2.45;;
47960;SDS011;33721;48.852;9.936;2023-01-10T11:49:32;12.48;;;2.55;;
47960;SDS011;33721;48.852;9.936;2023-01-10T11:52:25;11.07;;;2.10;;
47960;SDS011;33721;48.852;9.936;2023-01-10T11:54:52;12.65;;;2.38;;
47960;SDS011;33721;48.852;9.936;2023-01-10T11:57:22;7.60;;;1.77;;
47960;SDS011;33721;48.852;9.936;2023-01-10T11:59:54;8.90;;;2.10;;
47960;SDS011;33721;48.852;9.936;2023-01-10T12:05:00;9.43;;;2.05;;
47960;SDS011;33721;48.852;9.936;2023-01-10T12:07:30;9.70;;;2.00;;
47960;SDS011;33721;48.852;9.936;2023-01-10T12:10:18;8.18;;;2.05;;
47960;SDS011;33721;48.852;9.936;2023-01-10T12:12:51;11.60;;;2.08;;
47960;SDS011;33721;48.852;9.936;2023-01-10T12:15:20;8.40;;;2.40;;
47960;SDS011;33721;48.852;9.936;2023-01-10T12:17:54;7.43;;;2.25;;
47960;SDS011;33721;48.852;9.936;2023-01-10T12:20:23;7.40;;;2.00;;
47960;SDS011;33721;48.852;9.936;2023-01-10T12:22:53;10.25;;;2.15;;
47960;SDS011;33721;48.852;9.936;2023-01-10T12:27:59;9.15;;;2.00;;
47960;SDS011;33721;48.852;9.936;2023-01-10T12:33:21;9.98;;;1.95;;
47960;SDS011;33721;48.852;9.936;2023-01-10T12:36:01;9.65;;;2.17;;
47960;SDS011;33721;48.852;9.936;2023-01-10T12:38:58;8.70;;;1.92;;
47960;SDS011;33721;48.852;9.936;2023-01-10T12:41:37;3.53;;;1.25;;
47960;SDS011;33721;48.852;9.936;2023-01-10T12:44:41;7.43;;;1.55;;
47960;SDS011;33721;48.852;9.936;2023-01-10T12:47:52;5.15;;;1.17;;
47960;SDS011;33721;48.852;9.936;2023-01-10T12:52:47;8.20;;;1.70;;
47960;SDS011;33721;48.852;9.936;2023-01-10T12:55:27;8.45;;;2.25;;
47960;SDS011;33721;48.852;9.936;2023-01-10T13:00:26;10.48;;;1.80;;
47960;SDS011;33721;48.852;9.936;2023-01-10T13:05:23;5.85;;;1.30;;
47960;SDS011;33721;48.852;9.936;2023-01-10T13:07:52;8.30;;;1.60;;
47960;SDS011;33721;48.852;9.936;2023-01-10T13:10:23;10.35;;;1.83;;
47960;SDS011;33721;48.852;9.936;2023-01-10T13:12:58;7.85;;;2.33;;
47960;SDS011;33721;48.852;9.936;2023-01-10T13:15:33;8.13;;;1.98;;
47960;SDS011;33721;48.852;9.936;2023-01-10T13:18:14;7.40;;;1.58;;
47960;SDS011;33721;48.852;9.936;2023-01-10T13:20:41;7.88;;;1.60;;
47960;SDS011;33721;48.852;9.936;2023-01-10T13:23:44;8.73;;;2.10;;
47960;SDS011;33721;48.852;9.936;2023-01-10T13:26:07;10.65;;;1.73;;
47960;SDS011;33721;48.852;9.936;2023-01-10T13:28:37;11.33;;;1.77;;
47960;SDS011;33721;48.852;9.936;2023-01-10T13:31:06;11.30;;;2.60;;
47960;SDS011;33721;48.852;9.936;2023-01-10T13:33:59;8.95;;;1.65;;
47960;SDS011;33721;48.852;9.936;2023-01-10T13:36:39;8.43;;;1.85;;
47960;SDS011;33721;48.852;9.936;2023-01-10T13:42:10;5.93;;;1.67;;
47960;SDS011;33721;48.852;9.936;2023-01-10T13:52:47;7.60;;;2.05;;
47960;SDS011;33721;48.852;9.936;2023-01-10T14:00:21;8.75;;;1.80;;
47960;SDS011;33721;48.852;9.936;2023-01-10T14:03:08;5.82;;;1.80;;
47960;SDS011;33721;48.852;9.936;2023-01-10T14:06:13;8.20;;;1.90;;
47960;SDS011;33721;48.852;9.936;2023-01-10T14:08:40;10.45;;;1.98;;
47960;SDS011;33721;48.852;9.936;2023-01-10T14:11:12;6.85;;;1.98;;
47960;SDS011;33721;48.852;9.936;2023-01-10T14:13:44;8.18;;;1.85;;
47960;SDS011;33721;48.852;9.936;2023-01-10T14:19:18;7.28;;;1.80;;
47960;SDS011;33721;48.852;9.936;2023-01-10T14:21:52;6.97;;;1.70;;
47960;SDS011;33721;48.852;9.936;2023-01-10T14:26:55;9.48;;;1.85;;
47960;SDS011;33721;48.852;9.936;2023-01-10T14:29:25;8.68;;;2.28;;
47960;SDS011;33721;48.852;9.936;2023-01-10T14:31:55;6.20;;;1.90;;
47960;SDS011;33721;48.852;9.936;2023-01-10T14:34:24;13.90;;;2.30;;
47960;SDS011;33721;48.852;9.936;2023-01-10T14:37:08;12.27;;;1.60;;
47960;SDS011;33721;48.852;9.936;2023-01-10T14:39:47;7.55;;;1.70;;
47960;SDS011;33721;48.852;9.936;2023-01-10T14:42:17;6.10;;;1.10;;
47960;SDS011;33721;48.852;9.936;2023-01-10T14:44:46;8.68;;;1.60;;
47960;SDS011;33721;48.852;9.936;2023-01-10T14:47:43;7.60;;;1.73;;
47960;SDS011;33721;48.852;9.936;2023-01-10T14:50:26;7.15;;;1.40;;
47960;SDS011;33721;48.852;9.936;2023-01-10T14:52:54;11.25;;;1.83;;
47960;SDS011;33721;48.852;9.936;2023-01-10T14:55:20;10.13;;;1.80;;
47960;SDS011;33721;48.852;9.936;2023-01-10T14:57:57;5.50;;;1.67;;
47960;SDS011;33721;48.852;9.936;2023-01-10T15:00:25;11.38;;;2.35;;
47960;SDS011;33721;48.852;9.936;2023-01-10T15:02:56;5.55;;;1.48;;
47960;SDS011;33721;48.852;9.936;2023-01-10T15:05:28;12.98;;;1.85;;
47960;SDS011;33721;48.852;9.936;2023-01-10T15:10:49;6.90;;;1.60;;
47960;SDS011;33721;48.852;9.936;2023-01-10T15:13:19;11.43;;;1.60;;
47960;SDS011;33721;48.852;9.936;2023-01-10T15:15:47;12.38;;;1.65;;
47960;SDS011;33721;48.852;9.936;2023-01-10T15:18:29;12.52;;;1.63;;
47960;SDS011;33721;48.852;9.936;2023-01-10T15:21:01;17.08;;;1.45;;
47960;SDS011;33721;48.852;9.936;2023-01-10T15:23:35;11.27;;;1.70;;
47960;SDS011;33721;48.852;9.936;2023-01-10T15:26:03;10.98;;;1.60;;
47960;SDS011;33721;48.852;9.936;2023-01-10T15:28:42;5.90;;;1.33;;
47960;SDS011;33721;48.852;9.936;2023-01-10T15:31:13;12.70;;;1.42;;
47960;SDS011;33721;48.852;9.936;2023-01-10T15:33:44;6.00;;;1.30;;
47960;SDS011;33721;48.852;9.936;2023-01-10T15:36:20;8.88;;;1.42;;
47960;SDS011;33721;48.852;9.936;2023-01-10T15:38:51;8.30;;;1.27;;
47960;SDS011;33721;48.852;9.936;2023-01-10T15:41:18;5.80;;;1.05;;
47960;SDS011;33721;48.852;9.936;2023-01-10T15:43:45;10.52;;;1.38;;
47960;SDS011;33721;48.852;9.936;2023-01-10T15:46:20;7.05;;;1.35;;
47960;SDS011;33721;48.852;9.936;2023-01-10T15:48:54;4.25;;;1.38;;
47960;SDS011;33721;48.852;9.936;2023-01-10T15:51:28;4.38;;;1.40;;
47960;SDS011;33721;48.852;9.936;2023-01-10T15:56:56;6.70;;;1.42;;
47960;SDS011;33721;48.852;9.936;2023-01-10T15:59:45;5.90;;;1.33;;
47960;SDS011;33721;48.852;9.936;2023-01-10T16:02:27;11.77;;;4.18;;
47960;SDS011;33721;48.852;9.936;2023-01-10T16:04:57;14.15;;;4.57;;
47960;SDS011;33721;48.852;9.936;2023-01-10T16:07:34;15.68;;;3.38;;
47960;SDS011;33721;48.852;9.936;2023-01-10T16:10:07;7.25;;;3.03;;
47960;SDS011;33721;48.852;9.936;2023-01-10T16:12:40;8.85;;;2.85;;
47960;SDS011;33721;48.852;9.936;2023-01-10T16:15:26;10.38;;;2.30;;
47960;SDS011;33721;48.852;9.936;2023-01-10T16:17:54;8.35;;;2.58;;
47960;SDS011;33721;48.852;9.936;2023-01-10T16:20:20;11.60;;;2.65;;
47960;SDS011;33721;48.852;9.936;2023-01-10T16:22:49;8.45;;;1.83;;
47960;SDS011;33721;48.852;9.936;2023-01-10T16:25:17;10.88;;;2.90;;
47960;SDS011;33721;48.852;9.936;2023-01-10T16:27:44;8.15;;;2.88;;
47960;SDS011;33721;48.852;9.936;2023-01-10T16:30:29;8.45;;;2.95;;
47960;SDS011;33721;48.852;9.936;2023-01-10T16:32:57;10.27;;;3.40;;
47960;SDS011;33721;48.852;9.936;2023-01-10T16:35:34;8.55;;;2.78;;
47960;SDS011;33721;48.852;9.936;2023-01-10T16:38:00;14.02;;;2.90;;
47960;SDS011;33721;48.852;9.936;2023-01-10T16:40:28;11.05;;;2.95;;
47960;SDS011;33721;48.852;9.936;2023-01-10T16:42:59;11.07;;;3.15;;
47960;SDS011;33721;48.852;9.936;2023-01-10T16:46:16;11.23;;;3.33;;
47960;SDS011;33721;48.852;9.936;2023-01-10T16:48:34;10.25;;;3.17;;
47960;SDS011;33721;48.852;9.936;2023-01-10T16:51:04;9.30;;;3.00;;
47960;SDS011;33721;48.852;9.936;2023-01-10T16:53:47;15.85;;;2.80;;